sensor_id;sensor_type;location;lat;lon;timestamp;temperature;humidity
11221;DHT22;8517;53.546;10.104;2022-12-24T00:00:38;8.10;99.90
11221;DHT22;8517;53.546;10.104;2022-12-24T00:03:05;8.20;99.90
11221;DHT22;8517;53.546;10.104;2022-12-24T00:05:31;8.10;99.90
11221;DHT22;8517;53.546;10.104;2022-12-24T00:07:58;8.10;99.90
11221;DHT22;8517;53.546;10.104;2022-12-24T00:10:25;8.10;99.90
11221;DHT22;8517;53.546;10.104;2022-12-24T00:12:52;8.10;99.90
11221;DHT22;8517;53.546;10.104;2022-12-24T00:15:18;8.10;99.90
11221;DHT22;8517;53.546;10.104;2022-12-24T00:17:47;8.10;99.90
11221;DHT22;8517;53.546;10.104;2022-12-24T00:20:13;8.10;99.90
11221;DHT22;8517;53.546;10.104;2022-12-24T00:22:40;8.10;99.90
11221;DHT22;8517;53.546;10.104;2022-12-24T00:25:08;8.10;99.90
11221;DHT22;8517;53.546;10.104;2022-12-24T00:27:35;8.10;99.90
11221;DHT22;8517;53.546;10.104;2022-12-24T00:30:02;8.00;99.90
11221;DHT22;8517;53.546;10.104;2022-12-24T00:32:29;8.10;99.90
11221;DHT22;8517;53.546;10.104;2022-12-24T00:34:57;8.10;99.90
11221;DHT22;8517;53.546;10.104;2022-12-24T00:37:23;8.10;99.90
11221;DHT22;8517;53.546;10.104;2022-12-24T00:39:50;8.10;99.90
11221;DHT22;8517;53.546;10.104;2022-12-24T00:42:17;8.10;99.90
11221;DHT22;8517;53.546;10.104;2022-12-24T00:44:44;8.10;99.90
11221;DHT22;8517;53.546;10.104;2022-12-24T00:47:10;8.00;99.90
11221;DHT22;8517;53.546;10.104;2022-12-24T00:49:38;8.10;99.90
11221;DHT22;8517;53.546;10.104;2022-12-24T00:52:06;8.10;99.90
11221;DHT22;8517;53.546;10.104;2022-12-24T00:54:33;8.10;99.90
11221;DHT22;8517;53.546;10.104;2022-12-24T00:56:59;8.10;99.90
11221;DHT22;8517;53.546;10.104;2022-12-24T00:59:26;8.10;99.90
11221;DHT22;8517;53.546;10.104;2022-12-24T01:01:53;8.10;99.90
11221;DHT22;8517;53.546;10.104;2022-12-24T01:04:20;8.10;99.90
11221;DHT22;8517;53.546;10.104;2022-12-24T01:07:05;8.10;99.90
11221;DHT22;8517;53.546;10.104;2022-12-24T01:09:32;8.10;99.90
11221;DHT22;8517;53.546;10.104;2022-12-24T01:11:59;8.10;99.90
11221;DHT22;8517;53.546;10.104;2022-12-24T01:14:26;8.00;99.90
11221;DHT22;8517;53.546;10.104;2022-12-24T01:16:52;8.00;99.90
11221;DHT22;8517;53.546;10.104;2022-12-24T01:19:19;8.00;99.90
11221;DHT22;8517;53.546;10.104;2022-12-24T01:21:46;8.00;99.90
11221;DHT22;8517;53.546;10.104;2022-12-24T01:24:15;7.90;99.90
11221;DHT22;8517;53.546;10.104;2022-12-24T01:26:42;7.90;99.90
11221;DHT22;8517;53.546;10.104;2022-12-24T01:29:09;7.90;99.90
11221;DHT22;8517;53.546;10.104;2022-12-24T01:31:35;7.80;99.90
11221;DHT22;8517;53.546;10.104;2022-12-24T01:34:02;7.80;99.90
11221;DHT22;8517;53.546;10.104;2022-12-24T01:36:29;7.80;99.90
11221;DHT22;8517;53.546;10.104;2022-12-24T01:38:56;7.80;99.90
11221;DHT22;8517;53.546;10.104;2022-12-24T01:41:24;7.80;99.90
11221;DHT22;8517;53.546;10.104;2022-12-24T01:44:20;7.80;99.90
11221;DHT22;8517;53.546;10.104;2022-12-24T01:46:48;7.80;99.90
11221;DHT22;8517;53.546;10.104;2022-12-24T01:49:16;7.80;99.90
11221;DHT22;8517;53.546;10.104;2022-12-24T01:51:45;7.80;99.90
11221;DHT22;8517;53.546;10.104;2022-12-24T01:54:17;7.70;99.90
11221;DHT22;8517;53.546;10.104;2022-12-24T01:56:49;7.70;99.90
11221;DHT22;8517;53.546;10.104;2022-12-24T01:59:18;7.70;99.90
11221;DHT22;8517;53.546;10.104;2022-12-24T02:01:47;7.70;99.90
11221;DHT22;8517;53.546;10.104;2022-12-24T02:04:22;7.70;99.90
11221;DHT22;8517;53.546;10.104;2022-12-24T02:06:51;7.70;99.90
11221;DHT22;8517;53.546;10.104;2022-12-24T02:09:18;7.70;99.90
11221;DHT22;8517;53.546;10.104;2022-12-24T02:11:46;7.70;99.90
11221;DHT22;8517;53.546;10.104;2022-12-24T02:14:14;7.70;99.90
11221;DHT22;8517;53.546;10.104;2022-12-24T02:16:47;7.70;99.90
11221;DHT22;8517;53.546;10.104;2022-12-24T02:19:50;7.70;99.90
11221;DHT22;8517;53.546;10.104;2022-12-24T02:22:29;7.70;99.90
11221;DHT22;8517;53.546;10.104;2022-12-24T02:28:09;7.70;99.90
11221;DHT22;8517;53.546;10.104;2022-12-24T02:30:42;7.70;99.90
11221;DHT22;8517;53.546;10.104;2022-12-24T02:33:19;7.70;99.90
11221;DHT22;8517;53.546;10.104;2022-12-24T02:35:54;7.70;99.90
11221;DHT22;8517;53.546;10.104;2022-12-24T02:38:25;7.70;99.90
11221;DHT22;8517;53.546;10.104;2022-12-24T02:40:57;7.70;99.90
11221;DHT22;8517;53.546;10.104;2022-12-24T02:43:28;7.70;99.90
11221;DHT22;8517;53.546;10.104;2022-12-24T02:46:00;7.70;99.90
11221;DHT22;8517;53.546;10.104;2022-12-24T02:48:29;7.80;99.90
11221;DHT22;8517;53.546;10.104;2022-12-24T02:51:00;7.80;99.90
11221;DHT22;8517;53.546;10.104;2022-12-24T02:53:27;7.70;99.90
11221;DHT22;8517;53.546;10.104;2022-12-24T02:56:17;7.70;99.90
11221;DHT22;8517;53.546;10.104;2022-12-24T02:58:57;7.70;99.90
11221;DHT22;8517;53.546;10.104;2022-12-24T03:01:33;7.70;99.90
11221;DHT22;8517;53.546;10.104;2022-12-24T03:04:11;7.70;99.90
11221;DHT22;8517;53.546;10.104;2022-12-24T03:06:51;7.70;99.90
11221;DHT22;8517;53.546;10.104;2022-12-24T03:09:24;7.70;99.90
11221;DHT22;8517;53.546;10.104;2022-12-24T03:11:56;7.70;99.90
11221;DHT22;8517;53.546;10.104;2022-12-24T03:14:25;7.70;99.90
11221;DHT22;8517;53.546;10.104;2022-12-24T03:16:54;7.70;99.90
11221;DHT22;8517;53.546;10.104;2022-12-24T03:19:23;7.70;99.90
11221;DHT22;8517;53.546;10.104;2022-12-24T03:21:51;7.70;99.90
11221;DHT22;8517;53.546;10.104;2022-12-24T03:24:20;7.70;99.90
11221;DHT22;8517;53.546;10.104;2022-12-24T03:26:46;7.70;99.90
11221;DHT22;8517;53.546;10.104;2022-12-24T03:29:14;7.70;99.90
11221;DHT22;8517;53.546;10.104;2022-12-24T03:31:42;7.70;99.90
11221;DHT22;8517;53.546;10.104;2022-12-24T03:34:11;7.70;99.90
11221;DHT22;8517;53.546;10.104;2022-12-24T03:36:39;7.70;99.90
11221;DHT22;8517;53.546;10.104;2022-12-24T03:39:06;7.70;99.90
11221;DHT22;8517;53.546;10.104;2022-12-24T03:41:34;7.70;99.90
11221;DHT22;8517;53.546;10.104;2022-12-24T03:44:00;7.70;99.90
11221;DHT22;8517;53.546;10.104;2022-12-24T03:46:27;7.70;99.90
11221;DHT22;8517;53.546;10.104;2022-12-24T03:48:54;7.80;99.90
11221;DHT22;8517;53.546;10.104;2022-12-24T03:51:23;7.70;99.90
11221;DHT22;8517;53.546;10.104;2022-12-24T03:53:51;7.70;99.90
11221;DHT22;8517;53.546;10.104;2022-12-24T03:56:18;7.80;99.90
11221;DHT22;8517;53.546;10.104;2022-12-24T03:58:46;7.80;99.90
11221;DHT22;8517;53.546;10.104;2022-12-24T04:01:13;7.80;99.90
11221;DHT22;8517;53.546;10.104;2022-12-24T04:03:39;7.80;99.90
11221;DHT22;8517;53.546;10.104;2022-12-24T04:06:08;7.70;99.90
11221;DHT22;8517;53.546;10.104;2022-12-24T04:08:36;7.80;99.90
11221;DHT22;8517;53.546;10.104;2022-12-24T04:11:04;7.80;99.90
11221;DHT22;8517;53.546;10.104;2022-12-24T04:13:31;7.80;99.90
11221;DHT22;8517;53.546;10.104;2022-12-24T04:15:58;7.80;99.90
11221;DHT22;8517;53.546;10.104;2022-12-24T04:18:25;7.80;99.90
11221;DHT22;8517;53.546;10.104;2022-12-24T04:20:52;7.80;99.90
11221;DHT22;8517;53.546;10.104;2022-12-24T04:23:19;7.80;99.90
11221;DHT22;8517;53.546;10.104;2022-12-24T04:25:47;7.80;99.90
11221;DHT22;8517;53.546;10.104;2022-12-24T04:28:14;7.80;99.90
11221;DHT22;8517;53.546;10.104;2022-12-24T04:30:41;7.80;99.90
11221;DHT22;8517;53.546;10.104;2022-12-24T04:33:09;7.80;99.90
11221;DHT22;8517;53.546;10.104;2022-12-24T04:35:38;7.80;99.90
11221;DHT22;8517;53.546;10.104;2022-12-24T04:38:05;7.80;99.90
11221;DHT22;8517;53.546;10.104;2022-12-24T04:40:32;7.80;99.90
11221;DHT22;8517;53.546;10.104;2022-12-24T04:43:00;7.80;99.90
11221;DHT22;8517;53.546;10.104;2022-12-24T04:45:27;7.80;99.90
11221;DHT22;8517;53.546;10.104;2022-12-24T04:47:54;7.80;99.90
11221;DHT22;8517;53.546;10.104;2022-12-24T04:50:21;7.80;99.90
11221;DHT22;8517;53.546;10.104;2022-12-24T04:52:48;7.80;99.90
11221;DHT22;8517;53.546;10.104;2022-12-24T04:55:14;7.70;99.90
11221;DHT22;8517;53.546;10.104;2022-12-24T04:57:41;7.80;99.90
11221;DHT22;8517;53.546;10.104;2022-12-24T05:00:10;7.80;99.90
11221;DHT22;8517;53.546;10.104;2022-12-24T05:02:37;7.80;99.90
11221;DHT22;8517;53.546;10.104;2022-12-24T05:05:04;7.80;99.90
11221;DHT22;8517;53.546;10.104;2022-12-24T05:07:33;7.80;99.90
11221;DHT22;8517;53.546;10.104;2022-12-24T05:10:00;7.70;99.90
11221;DHT22;8517;53.546;10.104;2022-12-24T05:12:26;7.80;99.90
11221;DHT22;8517;53.546;10.104;2022-12-24T05:14:53;7.80;99.90
11221;DHT22;8517;53.546;10.104;2022-12-24T05:17:21;7.80;99.90
11221;DHT22;8517;53.546;10.104;2022-12-24T05:19:48;7.70;99.90
11221;DHT22;8517;53.546;10.104;2022-12-24T05:22:15;7.80;99.90
11221;DHT22;8517;53.546;10.104;2022-12-24T05:24:59;7.70;99.90
11221;DHT22;8517;53.546;10.104;2022-12-24T05:27:43;7.70;99.90
11221;DHT22;8517;53.546;10.104;2022-12-24T05:30:11;7.70;99.90
11221;DHT22;8517;53.546;10.104;2022-12-24T05:32:39;7.70;99.90
11221;DHT22;8517;53.546;10.104;2022-12-24T05:35:06;7.60;99.90
11221;DHT22;8517;53.546;10.104;2022-12-24T05:37:33;7.70;99.90
11221;DHT22;8517;53.546;10.104;2022-12-24T05:40:00;7.60;99.90
11221;DHT22;8517;53.546;10.104;2022-12-24T05:42:27;7.60;99.90
11221;DHT22;8517;53.546;10.104;2022-12-24T05:44:54;7.60;99.90
11221;DHT22;8517;53.546;10.104;2022-12-24T05:47:20;7.70;99.90
11221;DHT22;8517;53.546;10.104;2022-12-24T05:49:48;7.70;99.90
11221;DHT22;8517;53.546;10.104;2022-12-24T05:52:15;7.70;99.90
11221;DHT22;8517;53.546;10.104;2022-12-24T05:54:42;7.70;99.90
11221;DHT22;8517;53.546;10.104;2022-12-24T05:57:09;7.70;99.90
11221;DHT22;8517;53.546;10.104;2022-12-24T05:59:36;7.70;99.90
11221;DHT22;8517;53.546;10.104;2022-12-24T06:02:02;7.70;99.90
11221;DHT22;8517;53.546;10.104;2022-12-24T06:04:29;7.60;99.90
11221;DHT22;8517;53.546;10.104;2022-12-24T06:06:57;7.60;99.90
11221;DHT22;8517;53.546;10.104;2022-12-24T06:09:24;7.70;99.90
11221;DHT22;8517;53.546;10.104;2022-12-24T06:11:51;7.60;99.90
11221;DHT22;8517;53.546;10.104;2022-12-24T06:14:17;7.70;99.90
11221;DHT22;8517;53.546;10.104;2022-12-24T06:16:44;7.60;99.90
11221;DHT22;8517;53.546;10.104;2022-12-24T06:19:11;7.60;99.90
11221;DHT22;8517;53.546;10.104;2022-12-24T06:21:38;7.60;99.90
11221;DHT22;8517;53.546;10.104;2022-12-24T06:24:06;7.60;99.90
11221;DHT22;8517;53.546;10.104;2022-12-24T06:26:33;7.60;99.90
11221;DHT22;8517;53.546;10.104;2022-12-24T06:29:00;7.60;99.90
11221;DHT22;8517;53.546;10.104;2022-12-24T06:31:27;7.60;99.90
11221;DHT22;8517;53.546;10.104;2022-12-24T06:33:54;7.60;99.90
11221;DHT22;8517;53.546;10.104;2022-12-24T06:36:23;7.60;99.90
11221;DHT22;8517;53.546;10.104;2022-12-24T06:38:52;7.60;99.90
11221;DHT22;8517;53.546;10.104;2022-12-24T06:41:21;7.60;99.90
11221;DHT22;8517;53.546;10.104;2022-12-24T06:43:50;7.60;99.90
11221;DHT22;8517;53.546;10.104;2022-12-24T06:46:18;7.60;99.90
11221;DHT22;8517;53.546;10.104;2022-12-24T06:48:46;7.60;99.90
11221;DHT22;8517;53.546;10.104;2022-12-24T06:51:14;7.60;99.90
11221;DHT22;8517;53.546;10.104;2022-12-24T06:53:41;7.60;99.90
11221;DHT22;8517;53.546;10.104;2022-12-24T06:56:09;7.60;99.90
11221;DHT22;8517;53.546;10.104;2022-12-24T06:58:39;7.60;99.90
11221;DHT22;8517;53.546;10.104;2022-12-24T07:01:07;7.60;99.90
11221;DHT22;8517;53.546;10.104;2022-12-24T07:03:35;7.60;99.90
11221;DHT22;8517;53.546;10.104;2022-12-24T07:06:02;7.50;99.90
11221;DHT22;8517;53.546;10.104;2022-12-24T07:08:29;7.60;99.90
11221;DHT22;8517;53.546;10.104;2022-12-24T07:10:58;7.50;99.90
11221;DHT22;8517;53.546;10.104;2022-12-24T07:13:25;7.60;99.90
11221;DHT22;8517;53.546;10.104;2022-12-24T07:15:57;7.60;99.90
11221;DHT22;8517;53.546;10.104;2022-12-24T07:18:24;7.50;99.90
11221;DHT22;8517;53.546;10.104;2022-12-24T07:20:51;7.50;99.90
11221;DHT22;8517;53.546;10.104;2022-12-24T07:23:18;7.50;99.90
11221;DHT22;8517;53.546;10.104;2022-12-24T07:25:44;7.50;99.90
11221;DHT22;8517;53.546;10.104;2022-12-24T07:28:11;7.50;99.90
11221;DHT22;8517;53.546;10.104;2022-12-24T07:30:38;7.50;99.90
11221;DHT22;8517;53.546;10.104;2022-12-24T07:33:06;7.40;99.90
11221;DHT22;8517;53.546;10.104;2022-12-24T07:35:33;7.40;99.90
11221;DHT22;8517;53.546;10.104;2022-12-24T07:38:00;7.40;99.90
11221;DHT22;8517;53.546;10.104;2022-12-24T07:40:27;7.50;99.90
11221;DHT22;8517;53.546;10.104;2022-12-24T07:42:54;7.40;99.90
11221;DHT22;8517;53.546;10.104;2022-12-24T07:45:20;7.40;99.90
11221;DHT22;8517;53.546;10.104;2022-12-24T07:47:47;7.50;99.90
11221;DHT22;8517;53.546;10.104;2022-12-24T07:50:15;7.40;99.90
11221;DHT22;8517;53.546;10.104;2022-12-24T07:52:42;7.50;99.90
11221;DHT22;8517;53.546;10.104;2022-12-24T07:55:09;7.50;99.90
11221;DHT22;8517;53.546;10.104;2022-12-24T07:57:36;7.40;99.90
11221;DHT22;8517;53.546;10.104;2022-12-24T08:00:03;7.50;99.90
11221;DHT22;8517;53.546;10.104;2022-12-24T08:02:30;7.50;99.90
11221;DHT22;8517;53.546;10.104;2022-12-24T08:04:57;7.40;99.90
11221;DHT22;8517;53.546;10.104;2022-12-24T08:07:25;7.50;99.90
11221;DHT22;8517;53.546;10.104;2022-12-24T08:09:52;7.50;99.90
11221;DHT22;8517;53.546;10.104;2022-12-24T08:12:19;7.50;99.90
11221;DHT22;8517;53.546;10.104;2022-12-24T08:14:46;7.50;99.90
11221;DHT22;8517;53.546;10.104;2022-12-24T08:17:12;7.50;99.90
11221;DHT22;8517;53.546;10.104;2022-12-24T08:19:39;7.50;99.90
11221;DHT22;8517;53.546;10.104;2022-12-24T08:22:06;7.50;99.90
11221;DHT22;8517;53.546;10.104;2022-12-24T08:24:34;7.50;99.90
11221;DHT22;8517;53.546;10.104;2022-12-24T08:27:02;7.50;99.90
11221;DHT22;8517;53.546;10.104;2022-12-24T08:29:29;7.50;99.90
11221;DHT22;8517;53.546;10.104;2022-12-24T08:31:55;7.40;99.90
11221;DHT22;8517;53.546;10.104;2022-12-24T08:34:22;7.40;99.90
11221;DHT22;8517;53.546;10.104;2022-12-24T08:36:49;7.50;99.90
11221;DHT22;8517;53.546;10.104;2022-12-24T08:39:16;7.40;99.90
11221;DHT22;8517;53.546;10.104;2022-12-24T08:41:44;7.40;99.90
11221;DHT22;8517;53.546;10.104;2022-12-24T08:44:11;7.40;99.90
11221;DHT22;8517;53.546;10.104;2022-12-24T08:46:37;7.40;99.90
11221;DHT22;8517;53.546;10.104;2022-12-24T08:49:07;7.40;99.90
11221;DHT22;8517;53.546;10.104;2022-12-24T08:51:34;7.40;99.90
11221;DHT22;8517;53.546;10.104;2022-12-24T08:54:01;7.40;99.90
11221;DHT22;8517;53.546;10.104;2022-12-24T08:56:28;7.40;99.90
11221;DHT22;8517;53.546;10.104;2022-12-24T08:58:59;7.40;99.90
11221;DHT22;8517;53.546;10.104;2022-12-24T09:01:26;7.40;99.90
11221;DHT22;8517;53.546;10.104;2022-12-24T09:03:56;7.40;99.90
11221;DHT22;8517;53.546;10.104;2022-12-24T09:06:23;7.50;99.90
11221;DHT22;8517;53.546;10.104;2022-12-24T09:08:49;7.40;99.90
11221;DHT22;8517;53.546;10.104;2022-12-24T09:11:17;7.50;99.90
11221;DHT22;8517;53.546;10.104;2022-12-24T09:13:45;7.50;99.90
11221;DHT22;8517;53.546;10.104;2022-12-24T09:16:14;7.50;99.90
11221;DHT22;8517;53.546;10.104;2022-12-24T09:18:41;7.50;99.90
11221;DHT22;8517;53.546;10.104;2022-12-24T09:21:09;7.50;99.90
11221;DHT22;8517;53.546;10.104;2022-12-24T09:23:39;7.50;99.90
11221;DHT22;8517;53.546;10.104;2022-12-24T09:26:07;7.50;99.90
11221;DHT22;8517;53.546;10.104;2022-12-24T09:28:35;7.50;99.90
11221;DHT22;8517;53.546;10.104;2022-12-24T09:31:03;7.50;99.90
11221;DHT22;8517;53.546;10.104;2022-12-24T09:33:35;7.50;99.90
11221;DHT22;8517;53.546;10.104;2022-12-24T09:36:03;7.60;99.90
11221;DHT22;8517;53.546;10.104;2022-12-24T09:38:31;7.60;99.90
11221;DHT22;8517;53.546;10.104;2022-12-24T09:41:01;7.60;99.90
11221;DHT22;8517;53.546;10.104;2022-12-24T09:43:36;7.70;99.90
11221;DHT22;8517;53.546;10.104;2022-12-24T09:46:16;7.60;99.90
11221;DHT22;8517;53.546;10.104;2022-12-24T09:48:50;7.60;99.90
11221;DHT22;8517;53.546;10.104;2022-12-24T09:51:26;7.60;99.90
11221;DHT22;8517;53.546;10.104;2022-12-24T09:53:58;7.70;99.90
11221;DHT22;8517;53.546;10.104;2022-12-24T09:56:39;7.70;99.90
11221;DHT22;8517;53.546;10.104;2022-12-24T09:59:11;7.70;99.90
11221;DHT22;8517;53.546;10.104;2022-12-24T10:01:48;7.70;99.90
11221;DHT22;8517;53.546;10.104;2022-12-24T10:04:21;7.70;99.90
11221;DHT22;8517;53.546;10.104;2022-12-24T10:06:52;7.80;99.90
11221;DHT22;8517;53.546;10.104;2022-12-24T10:09:25;7.70;99.90
11221;DHT22;8517;53.546;10.104;2022-12-24T10:12:31;7.80;99.90
11221;DHT22;8517;53.546;10.104;2022-12-24T10:15:04;7.80;99.90
11221;DHT22;8517;53.546;10.104;2022-12-24T10:17:45;7.90;99.90
11221;DHT22;8517;53.546;10.104;2022-12-24T10:20:30;7.90;99.90
11221;DHT22;8517;53.546;10.104;2022-12-24T10:23:03;7.90;99.90
11221;DHT22;8517;53.546;10.104;2022-12-24T10:25:35;7.90;99.90
11221;DHT22;8517;53.546;10.104;2022-12-24T10:28:11;8.00;99.90
11221;DHT22;8517;53.546;10.104;2022-12-24T10:30:39;8.00;99.90
11221;DHT22;8517;53.546;10.104;2022-12-24T10:33:13;8.00;99.90
11221;DHT22;8517;53.546;10.104;2022-12-24T10:35:46;8.00;99.90
11221;DHT22;8517;53.546;10.104;2022-12-24T10:38:15;8.00;99.90
11221;DHT22;8517;53.546;10.104;2022-12-24T10:40:50;8.00;99.90
11221;DHT22;8517;53.546;10.104;2022-12-24T10:43:24;8.00;99.90
11221;DHT22;8517;53.546;10.104;2022-12-24T10:46:11;8.10;99.90
11221;DHT22;8517;53.546;10.104;2022-12-24T10:48:48;8.10;99.90
11221;DHT22;8517;53.546;10.104;2022-12-24T10:51:33;8.10;99.90
11221;DHT22;8517;53.546;10.104;2022-12-24T10:54:07;8.20;99.90
11221;DHT22;8517;53.546;10.104;2022-12-24T10:56:44;8.20;99.90
11221;DHT22;8517;53.546;10.104;2022-12-24T10:59:24;8.20;99.90
11221;DHT22;8517;53.546;10.104;2022-12-24T11:01:52;8.20;99.90
11221;DHT22;8517;53.546;10.104;2022-12-24T11:04:24;8.20;99.90
11221;DHT22;8517;53.546;10.104;2022-12-24T11:06:57;8.10;99.90
11221;DHT22;8517;53.546;10.104;2022-12-24T11:09:30;8.10;99.90
11221;DHT22;8517;53.546;10.104;2022-12-24T11:12:20;8.20;99.90
11221;DHT22;8517;53.546;10.104;2022-12-24T11:14:58;8.20;99.90
11221;DHT22;8517;53.546;10.104;2022-12-24T11:17:26;8.20;99.90
11221;DHT22;8517;53.546;10.104;2022-12-24T11:19:53;8.20;99.90
11221;DHT22;8517;53.546;10.104;2022-12-24T11:22:28;8.20;99.90
11221;DHT22;8517;53.546;10.104;2022-12-24T11:25:20;8.20;99.90
11221;DHT22;8517;53.546;10.104;2022-12-24T11:27:49;8.20;99.90
11221;DHT22;8517;53.546;10.104;2022-12-24T11:30:26;8.20;99.90
11221;DHT22;8517;53.546;10.104;2022-12-24T11:33:16;8.20;99.90
11221;DHT22;8517;53.546;10.104;2022-12-24T11:36:20;8.20;99.90
11221;DHT22;8517;53.546;10.104;2022-12-24T11:39:02;8.20;99.90
11221;DHT22;8517;53.546;10.104;2022-12-24T11:42:03;8.20;99.90
11221;DHT22;8517;53.546;10.104;2022-12-24T11:45:22;8.20;99.90
11221;DHT22;8517;53.546;10.104;2022-12-24T11:47:52;8.20;99.90
11221;DHT22;8517;53.546;10.104;2022-12-24T11:50:26;8.20;99.90
11221;DHT22;8517;53.546;10.104;2022-12-24T11:53:02;8.20;99.90
11221;DHT22;8517;53.546;10.104;2022-12-24T11:55:42;8.20;99.90
11221;DHT22;8517;53.546;10.104;2022-12-24T11:58:22;8.30;99.90
11221;DHT22;8517;53.546;10.104;2022-12-24T12:01:02;8.30;99.90
11221;DHT22;8517;53.546;10.104;2022-12-24T12:03:38;8.40;99.90
11221;DHT22;8517;53.546;10.104;2022-12-24T12:06:26;8.50;99.90
11221;DHT22;8517;53.546;10.104;2022-12-24T12:09:00;8.60;99.90
11221;DHT22;8517;53.546;10.104;2022-12-24T12:11:33;8.70;99.90
11221;DHT22;8517;53.546;10.104;2022-12-24T12:14:04;8.80;99.90
11221;DHT22;8517;53.546;10.104;2022-12-24T12:16:39;8.80;99.90
11221;DHT22;8517;53.546;10.104;2022-12-24T12:22:29;8.90;99.90
11221;DHT22;8517;53.546;10.104;2022-12-24T12:25:02;8.90;99.90
11221;DHT22;8517;53.546;10.104;2022-12-24T12:31:40;9.00;99.90
11221;DHT22;8517;53.546;10.104;2022-12-24T12:34:11;9.00;99.90
11221;DHT22;8517;53.546;10.104;2022-12-24T12:36:45;9.10;99.90
11221;DHT22;8517;53.546;10.104;2022-12-24T12:39:14;9.10;99.90
11221;DHT22;8517;53.546;10.104;2022-12-24T12:41:53;9.20;99.90
11221;DHT22;8517;53.546;10.104;2022-12-24T12:51:40;9.60;99.90
11221;DHT22;8517;53.546;10.104;2022-12-24T12:54:31;9.80;99.90
11221;DHT22;8517;53.546;10.104;2022-12-24T12:57:05;9.90;99.90
11221;DHT22;8517;53.546;10.104;2022-12-24T12:59:40;10.00;99.90
11221;DHT22;8517;53.546;10.104;2022-12-24T13:02:20;10.00;99.90
11221;DHT22;8517;53.546;10.104;2022-12-24T13:05:40;10.00;99.90
11221;DHT22;8517;53.546;10.104;2022-12-24T13:08:29;10.00;99.90
11221;DHT22;8517;53.546;10.104;2022-12-24T13:11:27;10.00;99.90
11221;DHT22;8517;53.546;10.104;2022-12-24T13:14:34;10.00;99.90
11221;DHT22;8517;53.546;10.104;2022-12-24T13:20:13;9.90;99.90
11221;DHT22;8517;53.546;10.104;2022-12-24T13:22:50;9.80;99.90
11221;DHT22;8517;53.546;10.104;2022-12-24T13:25:26;9.80;99.90
11221;DHT22;8517;53.546;10.104;2022-12-24T13:27:55;9.80;99.90
11221;DHT22;8517;53.546;10.104;2022-12-24T13:33:45;9.80;99.90
11221;DHT22;8517;53.546;10.104;2022-12-24T13:36:17;9.80;99.90
11221;DHT22;8517;53.546;10.104;2022-12-24T13:38:47;9.80;99.90
11221;DHT22;8517;53.546;10.104;2022-12-24T13:45:39;9.80;99.90
11221;DHT22;8517;53.546;10.104;2022-12-24T13:48:32;9.80;99.90
11221;DHT22;8517;53.546;10.104;2022-12-24T13:51:18;9.70;99.90
11221;DHT22;8517;53.546;10.104;2022-12-24T13:53:46;9.70;99.90
11221;DHT22;8517;53.546;10.104;2022-12-24T13:56:20;9.70;99.90
11221;DHT22;8517;53.546;10.104;2022-12-24T13:58:51;9.70;99.90
11221;DHT22;8517;53.546;10.104;2022-12-24T14:01:32;9.70;99.90
11221;DHT22;8517;53.546;10.104;2022-12-24T14:04:04;9.70;99.90
11221;DHT22;8517;53.546;10.104;2022-12-24T14:06:33;9.70;99.90
11221;DHT22;8517;53.546;10.104;2022-12-24T14:09:08;9.80;99.90
11221;DHT22;8517;53.546;10.104;2022-12-24T14:14:50;9.90;99.90
11221;DHT22;8517;53.546;10.104;2022-12-24T14:17:23;9.90;99.90
11221;DHT22;8517;53.546;10.104;2022-12-24T14:19:51;9.90;99.90
11221;DHT22;8517;53.546;10.104;2022-12-24T14:22:27;10.00;99.90
11221;DHT22;8517;53.546;10.104;2022-12-24T14:24:56;10.00;99.90
11221;DHT22;8517;53.546;10.104;2022-12-24T14:27:42;10.00;99.90
11221;DHT22;8517;53.546;10.104;2022-12-24T14:30:18;10.00;99.90
11221;DHT22;8517;53.546;10.104;2022-12-24T14:33:29;10.10;99.90
11221;DHT22;8517;53.546;10.104;2022-12-24T14:39:23;10.10;99.90
11221;DHT22;8517;53.546;10.104;2022-12-24T14:41:58;10.10;99.90
11221;DHT22;8517;53.546;10.104;2022-12-24T14:44:38;10.10;99.90
11221;DHT22;8517;53.546;10.104;2022-12-24T14:47:15;10.10;99.90
11221;DHT22;8517;53.546;10.104;2022-12-24T14:49:55;10.10;99.90
11221;DHT22;8517;53.546;10.104;2022-12-24T14:52:29;10.10;99.90
11221;DHT22;8517;53.546;10.104;2022-12-24T14:55:00;10.20;99.90
11221;DHT22;8517;53.546;10.104;2022-12-24T14:58:23;10.20;99.90
11221;DHT22;8517;53.546;10.104;2022-12-24T15:00:55;10.20;99.90
11221;DHT22;8517;53.546;10.104;2022-12-24T15:03:23;10.10;99.90
11221;DHT22;8517;53.546;10.104;2022-12-24T15:05:55;10.10;99.90
11221;DHT22;8517;53.546;10.104;2022-12-24T15:08:31;10.10;99.90
11221;DHT22;8517;53.546;10.104;2022-12-24T15:11:01;10.10;99.90
11221;DHT22;8517;53.546;10.104;2022-12-24T15:13:32;10.10;99.90
11221;DHT22;8517;53.546;10.104;2022-12-24T15:16:02;10.10;99.90
11221;DHT22;8517;53.546;10.104;2022-12-24T15:18:32;10.10;99.90
11221;DHT22;8517;53.546;10.104;2022-12-24T15:21:07;10.20;99.90
11221;DHT22;8517;53.546;10.104;2022-12-24T15:24:22;10.20;99.90
11221;DHT22;8517;53.546;10.104;2022-12-24T15:26:35;10.20;99.90
11221;DHT22;8517;53.546;10.104;2022-12-24T15:29:20;10.20;99.90
11221;DHT22;8517;53.546;10.104;2022-12-24T15:31:58;10.20;99.90
11221;DHT22;8517;53.546;10.104;2022-12-24T15:34:27;10.10;99.90
11221;DHT22;8517;53.546;10.104;2022-12-24T15:37:20;10.10;99.90
11221;DHT22;8517;53.546;10.104;2022-12-24T15:40:07;10.10;99.90
11221;DHT22;8517;53.546;10.104;2022-12-24T15:43:07;10.10;99.90
11221;DHT22;8517;53.546;10.104;2022-12-24T15:45:41;10.10;99.90
11221;DHT22;8517;53.546;10.104;2022-12-24T15:48:20;10.00;99.90
11221;DHT22;8517;53.546;10.104;2022-12-24T15:50:52;10.00;99.90
11221;DHT22;8517;53.546;10.104;2022-12-24T15:57:10;10.00;99.90
11221;DHT22;8517;53.546;10.104;2022-12-24T15:59:38;10.00;99.90
11221;DHT22;8517;53.546;10.104;2022-12-24T16:02:36;10.00;99.90
11221;DHT22;8517;53.546;10.104;2022-12-24T16:05:43;10.00;99.90
11221;DHT22;8517;53.546;10.104;2022-12-24T16:08:27;10.00;99.90
11221;DHT22;8517;53.546;10.104;2022-12-24T16:11:08;10.00;99.90
11221;DHT22;8517;53.546;10.104;2022-12-24T16:17:17;10.00;99.90
11221;DHT22;8517;53.546;10.104;2022-12-24T16:19:50;10.00;99.90
11221;DHT22;8517;53.546;10.104;2022-12-24T16:25:58;10.00;99.90
11221;DHT22;8517;53.546;10.104;2022-12-24T16:28:53;10.00;99.90
11221;DHT22;8517;53.546;10.104;2022-12-24T16:34:50;10.00;99.90
11221;DHT22;8517;53.546;10.104;2022-12-24T16:37:36;10.10;99.90
11221;DHT22;8517;53.546;10.104;2022-12-24T16:40:18;10.10;99.90
11221;DHT22;8517;53.546;10.104;2022-12-24T16:42:45;10.20;99.90
11221;DHT22;8517;53.546;10.104;2022-12-24T16:45:35;10.20;99.90
11221;DHT22;8517;53.546;10.104;2022-12-24T16:48:29;10.20;99.90
11221;DHT22;8517;53.546;10.104;2022-12-24T16:57:32;10.50;99.90
11221;DHT22;8517;53.546;10.104;2022-12-24T17:02:55;10.50;99.90
11221;DHT22;8517;53.546;10.104;2022-12-24T17:05:23;10.60;99.90
11221;DHT22;8517;53.546;10.104;2022-12-24T17:07:50;10.60;99.90
11221;DHT22;8517;53.546;10.104;2022-12-24T17:10:34;10.60;99.90
11221;DHT22;8517;53.546;10.104;2022-12-24T17:13:03;10.60;99.90